sensor_id;sensor_type;location;lat;lon;timestamp;temperature;humidity
21801;DHT22;11062;51.164;16.924;2022-08-18T00:02:21;38.10;46.00
21801;DHT22;11062;51.164;16.924;2022-08-18T00:04:48;38.20;45.90
21801;DHT22;11062;51.164;16.924;2022-08-18T00:07:18;38.10;46.00
21801;DHT22;11062;51.164;16.924;2022-08-18T00:09:45;38.10;45.90
21801;DHT22;11062;51.164;16.924;2022-08-18T00:14:48;38.20;45.80
21801;DHT22;11062;51.164;16.924;2022-08-18T00:17:18;38.10;45.90
21801;DHT22;11062;51.164;16.924;2022-08-18T00:19:45;38.10;45.90
21801;DHT22;11062;51.164;16.924;2022-08-18T00:22:13;37.90;45.80
21801;DHT22;11062;51.164;16.924;2022-08-18T00:24:40;37.80;46.00
21801;DHT22;11062;51.164;16.924;2022-08-18T00:27:06;37.70;46.00
21801;DHT22;11062;51.164;16.924;2022-08-18T00:29:35;37.80;46.20
21801;DHT22;11062;51.164;16.924;2022-08-18T00:32:11;37.90;46.10
21801;DHT22;11062;51.164;16.924;2022-08-18T00:34:38;37.90;46.00
21801;DHT22;11062;51.164;16.924;2022-08-18T00:37:04;37.80;46.40
21801;DHT22;11062;51.164;16.924;2022-08-18T00:39:32;37.90;46.30
21801;DHT22;11062;51.164;16.924;2022-08-18T00:42:01;37.80;46.00
21801;DHT22;11062;51.164;16.924;2022-08-18T00:44:38;37.70;46.10
21801;DHT22;11062;51.164;16.924;2022-08-18T00:47:04;37.70;46.40
21801;DHT22;11062;51.164;16.924;2022-08-18T00:49:30;37.60;46.20
21801;DHT22;11062;51.164;16.924;2022-08-18T00:51:59;37.50;46.40
21801;DHT22;11062;51.164;16.924;2022-08-18T00:54:31;37.60;46.40
21801;DHT22;11062;51.164;16.924;2022-08-18T00:57:04;37.60;46.30
21801;DHT22;11062;51.164;16.924;2022-08-18T01:02:31;37.20;46.70
21801;DHT22;11062;51.164;16.924;2022-08-18T01:07:40;37.20;46.80
21801;DHT22;11062;51.164;16.924;2022-08-18T01:10:26;37.30;46.90
21801;DHT22;11062;51.164;16.924;2022-08-18T01:12:55;37.30;46.60
21801;DHT22;11062;51.164;16.924;2022-08-18T01:15:23;37.20;46.60
21801;DHT22;11062;51.164;16.924;2022-08-18T01:17:50;37.30;46.40
21801;DHT22;11062;51.164;16.924;2022-08-18T01:23:45;37.60;45.90
21801;DHT22;11062;51.164;16.924;2022-08-18T01:26:13;37.70;45.90
21801;DHT22;11062;51.164;16.924;2022-08-18T01:28:40;37.60;45.60
21801;DHT22;11062;51.164;16.924;2022-08-18T01:31:08;37.60;46.10
21801;DHT22;11062;51.164;16.924;2022-08-18T01:33:42;37.60;46.30
21801;DHT22;11062;51.164;16.924;2022-08-18T01:36:19;37.50;46.30
21801;DHT22;11062;51.164;16.924;2022-08-18T01:38:49;37.40;46.50
21801;DHT22;11062;51.164;16.924;2022-08-18T01:41:16;37.40;46.50
21801;DHT22;11062;51.164;16.924;2022-08-18T01:43:42;37.50;46.00
21801;DHT22;11062;51.164;16.924;2022-08-18T01:46:08;37.50;46.00
21801;DHT22;11062;51.164;16.924;2022-08-18T01:48:36;37.60;46.00
21801;DHT22;11062;51.164;16.924;2022-08-18T01:51:04;37.50;45.80
21801;DHT22;11062;51.164;16.924;2022-08-18T01:53:30;37.60;45.70
21801;DHT22;11062;51.164;16.924;2022-08-18T01:55:56;37.60;45.60
21801;DHT22;11062;51.164;16.924;2022-08-18T01:58:22;37.70;45.50
21801;DHT22;11062;51.164;16.924;2022-08-18T02:00:56;37.80;45.30
21801;DHT22;11062;51.164;16.924;2022-08-18T02:03:37;38.00;45.20
21801;DHT22;11062;51.164;16.924;2022-08-18T02:06:08;38.10;45.10
21801;DHT22;11062;51.164;16.924;2022-08-18T02:08:35;38.00;45.00
21801;DHT22;11062;51.164;16.924;2022-08-18T02:11:01;37.90;45.10
21801;DHT22;11062;51.164;16.924;2022-08-18T02:13:28;37.90;45.20
21801;DHT22;11062;51.164;16.924;2022-08-18T02:15:54;38.00;45.10
21801;DHT22;11062;51.164;16.924;2022-08-18T02:18:26;38.10;44.80
21801;DHT22;11062;51.164;16.924;2022-08-18T02:20:54;38.20;44.80
21801;DHT22;11062;51.164;16.924;2022-08-18T02:23:20;38.20;44.70
21801;DHT22;11062;51.164;16.924;2022-08-18T02:25:47;38.30;44.50
21801;DHT22;11062;51.164;16.924;2022-08-18T02:28:13;38.30;44.30
21801;DHT22;11062;51.164;16.924;2022-08-18T02:30:39;38.30;44.40
21801;DHT22;11062;51.164;16.924;2022-08-18T02:33:10;38.20;44.50
21801;DHT22;11062;51.164;16.924;2022-08-18T02:35:39;38.00;44.50
21801;DHT22;11062;51.164;16.924;2022-08-18T02:38:08;38.00;44.60
21801;DHT22;11062;51.164;16.924;2022-08-18T02:40:34;38.00;44.50
21801;DHT22;11062;51.164;16.924;2022-08-18T02:43:08;38.10;44.70
21801;DHT22;11062;51.164;16.924;2022-08-18T02:45:36;38.20;44.60
21801;DHT22;11062;51.164;16.924;2022-08-18T02:48:02;38.20;44.60
21801;DHT22;11062;51.164;16.924;2022-08-18T02:50:28;38.20;44.50
21801;DHT22;11062;51.164;16.924;2022-08-18T02:52:54;38.30;44.50
21801;DHT22;11062;51.164;16.924;2022-08-18T02:55:20;38.30;44.40
21801;DHT22;11062;51.164;16.924;2022-08-18T02:57:47;38.30;44.20
21801;DHT22;11062;51.164;16.924;2022-08-18T03:00:16;38.40;44.30
21801;DHT22;11062;51.164;16.924;2022-08-18T03:02:49;38.40;44.30
21801;DHT22;11062;51.164;16.924;2022-08-18T03:05:16;38.40;44.10
21801;DHT22;11062;51.164;16.924;2022-08-18T03:07:43;38.40;44.00
21801;DHT22;11062;51.164;16.924;2022-08-18T03:10:12;38.40;44.00
21801;DHT22;11062;51.164;16.924;2022-08-18T03:12:43;38.30;44.10
21801;DHT22;11062;51.164;16.924;2022-08-18T03:15:09;38.30;44.10
21801;DHT22;11062;51.164;16.924;2022-08-18T03:17:37;38.30;44.20
21801;DHT22;11062;51.164;16.924;2022-08-18T03:20:04;38.30;44.00
21801;DHT22;11062;51.164;16.924;2022-08-18T03:22:30;38.30;43.70
21801;DHT22;11062;51.164;16.924;2022-08-18T03:24:56;38.30;43.90
21801;DHT22;11062;51.164;16.924;2022-08-18T03:27:23;38.30;43.80
21801;DHT22;11062;51.164;16.924;2022-08-18T03:29:49;38.30;43.70
21801;DHT22;11062;51.164;16.924;2022-08-18T03:32:16;38.30;43.70
21801;DHT22;11062;51.164;16.924;2022-08-18T03:34:42;38.30;43.80
21801;DHT22;11062;51.164;16.924;2022-08-18T03:37:09;38.30;44.60
21801;DHT22;11062;51.164;16.924;2022-08-18T03:39:35;38.30;44.00
21801;DHT22;11062;51.164;16.924;2022-08-18T03:42:01;38.40;44.10
21801;DHT22;11062;51.164;16.924;2022-08-18T03:44:29;38.30;44.00
21801;DHT22;11062;51.164;16.924;2022-08-18T03:46:56;38.30;44.00
21801;DHT22;11062;51.164;16.924;2022-08-18T03:49:26;38.40;44.10
21801;DHT22;11062;51.164;16.924;2022-08-18T03:51:52;38.30;44.10
21801;DHT22;11062;51.164;16.924;2022-08-18T03:54:18;38.30;44.10
21801;DHT22;11062;51.164;16.924;2022-08-18T03:56:46;38.30;43.90
21801;DHT22;11062;51.164;16.924;2022-08-18T03:59:20;38.30;43.90
21801;DHT22;11062;51.164;16.924;2022-08-18T04:02:07;38.30;43.90
21801;DHT22;11062;51.164;16.924;2022-08-18T04:05:08;38.30;43.90
21801;DHT22;11062;51.164;16.924;2022-08-18T04:08:25;38.30;44.00
21801;DHT22;11062;51.164;16.924;2022-08-18T04:11:38;38.30;44.30
21801;DHT22;11062;51.164;16.924;2022-08-18T04:14:38;38.40;44.30
21801;DHT22;11062;51.164;16.924;2022-08-18T04:18:03;38.40;44.10
21801;DHT22;11062;51.164;16.924;2022-08-18T04:20:33;38.40;44.10
21801;DHT22;11062;51.164;16.924;2022-08-18T04:23:03;38.50;44.30
21801;DHT22;11062;51.164;16.924;2022-08-18T04:35:18;38.50;44.70
21801;DHT22;11062;51.164;16.924;2022-08-18T04:38:17;38.60;44.60
21801;DHT22;11062;51.164;16.924;2022-08-18T04:41:25;38.60;44.60
21801;DHT22;11062;51.164;16.924;2022-08-18T04:44:49;38.50;45.00
21801;DHT22;11062;51.164;16.924;2022-08-18T04:47:38;38.50;45.00
21801;DHT22;11062;51.164;16.924;2022-08-18T04:50:08;38.60;45.20
21801;DHT22;11062;51.164;16.924;2022-08-18T04:52:36;38.60;45.00
21801;DHT22;11062;51.164;16.924;2022-08-18T04:55:20;38.70;45.10
21801;DHT22;11062;51.164;16.924;2022-08-18T04:58:12;38.70;45.00
21801;DHT22;11062;51.164;16.924;2022-08-18T05:04:50;39.00;45.00
21801;DHT22;11062;51.164;16.924;2022-08-18T05:07:42;39.00;45.00
21801;DHT22;11062;51.164;16.924;2022-08-18T05:10:23;39.10;44.90
21801;DHT22;11062;51.164;16.924;2022-08-18T05:13:31;39.20;44.90
21801;DHT22;11062;51.164;16.924;2022-08-18T05:16:06;39.30;44.70
21801;DHT22;11062;51.164;16.924;2022-08-18T05:21:39;39.10;45.30
21801;DHT22;11062;51.164;16.924;2022-08-18T05:24:33;39.10;45.00
21801;DHT22;11062;51.164;16.924;2022-08-18T05:27:47;39.20;45.00
21801;DHT22;11062;51.164;16.924;2022-08-18T05:30:13;39.30;44.90
21801;DHT22;11062;51.164;16.924;2022-08-18T05:32:42;39.40;44.80
21801;DHT22;11062;51.164;16.924;2022-08-18T05:35:31;39.40;44.80
21801;DHT22;11062;51.164;16.924;2022-08-18T05:41:23;39.60;44.80
21801;DHT22;11062;51.164;16.924;2022-08-18T05:43:53;39.60;44.60
21801;DHT22;11062;51.164;16.924;2022-08-18T05:49:24;39.80;44.60
21801;DHT22;11062;51.164;16.924;2022-08-18T05:55:36;40.00;44.90
21801;DHT22;11062;51.164;16.924;2022-08-18T05:59:04;40.00;44.50
21801;DHT22;11062;51.164;16.924;2022-08-18T06:01:39;40.20;44.30
21801;DHT22;11062;51.164;16.924;2022-08-18T06:07:03;40.20;44.30
21801;DHT22;11062;51.164;16.924;2022-08-18T06:09:43;40.50;44.40
21801;DHT22;11062;51.164;16.924;2022-08-18T06:12:26;40.60;44.10
21801;DHT22;11062;51.164;16.924;2022-08-18T06:15:07;40.70;44.20
21801;DHT22;11062;51.164;16.924;2022-08-18T06:18:07;40.70;44.30
21801;DHT22;11062;51.164;16.924;2022-08-18T06:29:41;40.20;44.60
21801;DHT22;11062;51.164;16.924;2022-08-18T06:35:10;40.20;44.70
21801;DHT22;11062;51.164;16.924;2022-08-18T06:40:42;40.20;44.40
21801;DHT22;11062;51.164;16.924;2022-08-18T06:43:12;40.20;44.50
21801;DHT22;11062;51.164;16.924;2022-08-18T06:45:43;40.40;44.60
21801;DHT22;11062;51.164;16.924;2022-08-18T06:48:55;40.40;44.50
21801;DHT22;11062;51.164;16.924;2022-08-18T06:51:26;40.40;44.60
21801;DHT22;11062;51.164;16.924;2022-08-18T06:54:06;40.50;44.90
21801;DHT22;11062;51.164;16.924;2022-08-18T06:59:32;40.80;44.10
21801;DHT22;11062;51.164;16.924;2022-08-18T07:02:21;41.00;43.80
21801;DHT22;11062;51.164;16.924;2022-08-18T07:05:07;41.10;43.80
21801;DHT22;11062;51.164;16.924;2022-08-18T07:07:41;41.30;43.70
21801;DHT22;11062;51.164;16.924;2022-08-18T07:13:13;41.50;43.70
21801;DHT22;11062;51.164;16.924;2022-08-18T07:15:40;41.70;43.20
21801;DHT22;11062;51.164;16.924;2022-08-18T07:18:11;41.70;43.00
21801;DHT22;11062;51.164;16.924;2022-08-18T07:20:55;41.90;42.80
21801;DHT22;11062;51.164;16.924;2022-08-18T07:23:41;42.00;42.80
21801;DHT22;11062;51.164;16.924;2022-08-18T07:26:13;42.20;42.80
21801;DHT22;11062;51.164;16.924;2022-08-18T07:28:43;42.30;42.60
21801;DHT22;11062;51.164;16.924;2022-08-18T07:31:41;42.30;42.70
21801;DHT22;11062;51.164;16.924;2022-08-18T07:34:35;42.50;42.40
21801;DHT22;11062;51.164;16.924;2022-08-18T07:37:08;42.60;42.30
21801;DHT22;11062;51.164;16.924;2022-08-18T07:40:21;42.50;42.30
21801;DHT22;11062;51.164;16.924;2022-08-18T07:43:04;42.60;42.10
21801;DHT22;11062;51.164;16.924;2022-08-18T07:45:41;42.60;42.30
21801;DHT22;11062;51.164;16.924;2022-08-18T07:48:20;42.50;42.50
21801;DHT22;11062;51.164;16.924;2022-08-18T07:50:57;42.50;42.80
21801;DHT22;11062;51.164;16.924;2022-08-18T07:53:50;42.60;42.80
21801;DHT22;11062;51.164;16.924;2022-08-18T08:05:47;42.90;41.60
21801;DHT22;11062;51.164;16.924;2022-08-18T08:08:43;42.90;41.70
21801;DHT22;11062;51.164;16.924;2022-08-18T08:11:57;43.00;42.50
21801;DHT22;11062;51.164;16.924;2022-08-18T08:14:43;43.10;42.10
21801;DHT22;11062;51.164;16.924;2022-08-18T08:17:23;43.10;42.10
21801;DHT22;11062;51.164;16.924;2022-08-18T08:21:00;42.80;42.30
21801;DHT22;11062;51.164;16.924;2022-08-18T08:23:54;42.70;42.60
21801;DHT22;11062;51.164;16.924;2022-08-18T08:26:31;42.90;42.70
21801;DHT22;11062;51.164;16.924;2022-08-18T08:32:04;42.90;42.80
21801;DHT22;11062;51.164;16.924;2022-08-18T08:34:44;42.80;42.80
21801;DHT22;11062;51.164;16.924;2022-08-18T08:37:46;42.80;41.70
21801;DHT22;11062;51.164;16.924;2022-08-18T08:40:29;42.80;42.60
21801;DHT22;11062;51.164;16.924;2022-08-18T08:43:10;43.00;42.80
21801;DHT22;11062;51.164;16.924;2022-08-18T08:46:01;43.20;42.50
21801;DHT22;11062;51.164;16.924;2022-08-18T08:55:15;43.50;41.80
21801;DHT22;11062;51.164;16.924;2022-08-18T09:27:44;43.90;39.20
21801;DHT22;11062;51.164;16.924;2022-08-18T09:31:13;44.10;38.90
21801;DHT22;11062;51.164;16.924;2022-08-18T09:34:19;43.90;39.10
21801;DHT22;11062;51.164;16.924;2022-08-18T09:38:18;44.20;39.10
21801;DHT22;11062;51.164;16.924;2022-08-18T09:41:32;44.40;38.60
21801;DHT22;11062;51.164;16.924;2022-08-18T09:45:53;44.40;39.20
21801;DHT22;11062;51.164;16.924;2022-08-18T09:55:05;44.80;37.60
21801;DHT22;11062;51.164;16.924;2022-08-18T10:05:36;45.60;37.20
21801;DHT22;11062;51.164;16.924;2022-08-18T10:08:45;45.90;36.60
21801;DHT22;11062;51.164;16.924;2022-08-18T10:11:45;46.20;36.30
21801;DHT22;11062;51.164;16.924;2022-08-18T10:14:22;46.40;36.30
21801;DHT22;11062;51.164;16.924;2022-08-18T10:17:31;46.50;34.20
21801;DHT22;11062;51.164;16.924;2022-08-18T10:27:59;46.80;34.50
21801;DHT22;11062;51.164;16.924;2022-08-18T10:31:29;47.00;34.20
21801;DHT22;11062;51.164;16.924;2022-08-18T17:11:35;50.30;29.60
21801;DHT22;11062;51.164;16.924;2022-08-18T17:14:08;50.30;29.90
21801;DHT22;11062;51.164;16.924;2022-08-18T17:16:36;50.00;30.00
21801;DHT22;11062;51.164;16.924;2022-08-18T17:19:03;49.80;30.00
21801;DHT22;11062;51.164;16.924;2022-08-18T17:21:31;49.50;30.90
21801;DHT22;11062;51.164;16.924;2022-08-18T17:23:59;49.30;30.30
21801;DHT22;11062;51.164;16.924;2022-08-18T17:32:40;48.80;31.00
21801;DHT22;11062;51.164;16.924;2022-08-18T17:35:23;48.60;31.30
21801;DHT22;11062;51.164;16.924;2022-08-18T17:38:01;48.40;31.60
21801;DHT22;11062;51.164;16.924;2022-08-18T17:40:36;48.30;31.80
21801;DHT22;11062;51.164;16.924;2022-08-18T17:43:08;48.20;32.00
21801;DHT22;11062;51.164;16.924;2022-08-18T17:45:38;48.10;32.20
21801;DHT22;11062;51.164;16.924;2022-08-18T17:50:50;47.70;32.80
21801;DHT22;11062;51.164;16.924;2022-08-18T17:53:36;47.60;33.00
21801;DHT22;11062;51.164;16.924;2022-08-18T17:56:38;47.40;33.00
21801;DHT22;11062;51.164;16.924;2022-08-18T17:59:11;47.10;33.20
21801;DHT22;11062;51.164;16.924;2022-08-18T18:01:41;47.00;33.60
21801;DHT22;11062;51.164;16.924;2022-08-18T18:04:08;46.60;33.90
21801;DHT22;11062;51.164;16.924;2022-08-18T18:06:40;46.10;34.30
21801;DHT22;11062;51.164;16.924;2022-08-18T18:09:27;46.00;34.60
21801;DHT22;11062;51.164;16.924;2022-08-18T18:11:54;45.90;34.80
21801;DHT22;11062;51.164;16.924;2022-08-18T18:14:34;45.70;35.60
21801;DHT22;11062;51.164;16.924;2022-08-18T18:17:13;45.60;35.10
21801;DHT22;11062;51.164;16.924;2022-08-18T18:19:43;45.60;35.20
21801;DHT22;11062;51.164;16.924;2022-08-18T18:22:17;45.40;35.30
21801;DHT22;11062;51.164;16.924;2022-08-18T18:25:03;45.40;35.50
21801;DHT22;11062;51.164;16.924;2022-08-18T18:30:19;45.30;35.80
21801;DHT22;11062;51.164;16.924;2022-08-18T18:35:53;45.10;36.20
21801;DHT22;11062;51.164;16.924;2022-08-18T18:38:33;44.90;36.10
21801;DHT22;11062;51.164;16.924;2022-08-18T18:41:21;44.70;36.40
21801;DHT22;11062;51.164;16.924;2022-08-18T18:44:11;44.70;36.40
21801;DHT22;11062;51.164;16.924;2022-08-18T18:49:23;44.70;36.60
21801;DHT22;11062;51.164;16.924;2022-08-18T18:54:44;44.40;36.80
21801;DHT22;11062;51.164;16.924;2022-08-18T18:57:37;44.30;37.10
21801;DHT22;11062;51.164;16.924;2022-08-18T19:10:51;43.80;37.80
21801;DHT22;11062;51.164;16.924;2022-08-18T19:13:23;43.70;37.80
21801;DHT22;11062;51.164;16.924;2022-08-18T19:15:54;43.70;37.80
21801;DHT22;11062;51.164;16.924;2022-08-18T19:18:36;43.90;37.80
21801;DHT22;11062;51.164;16.924;2022-08-18T19:21:19;44.10;37.70
21801;DHT22;11062;51.164;16.924;2022-08-18T19:24:01;44.10;37.60
21801;DHT22;11062;51.164;16.924;2022-08-18T19:26:42;44.20;37.50
21801;DHT22;11062;51.164;16.924;2022-08-18T19:29:13;44.20;37.50
21801;DHT22;11062;51.164;16.924;2022-08-18T19:31:46;44.10;37.70
21801;DHT22;11062;51.164;16.924;2022-08-18T19:34:28;44.10;37.70
21801;DHT22;11062;51.164;16.924;2022-08-18T19:37:18;44.10;37.80
21801;DHT22;11062;51.164;16.924;2022-08-18T19:40:31;44.10;37.80
21801;DHT22;11062;51.164;16.924;2022-08-18T19:43:02;44.00;37.80
21801;DHT22;11062;51.164;16.924;2022-08-18T19:46:22;43.90;38.00
21801;DHT22;11062;51.164;16.924;2022-08-18T19:48:51;43.80;38.10
21801;DHT22;11062;51.164;16.924;2022-08-18T19:54:07;43.60;39.10
21801;DHT22;11062;51.164;16.924;2022-08-18T20:00:20;43.50;38.60
21801;DHT22;11062;51.164;16.924;2022-08-18T20:03:10;43.40;38.60
21801;DHT22;11062;51.164;16.924;2022-08-18T20:15:16;43.00;39.00
21801;DHT22;11062;51.164;16.924;2022-08-18T20:18:03;42.80;39.30
21801;DHT22;11062;51.164;16.924;2022-08-18T20:20:33;42.90;39.40
21801;DHT22;11062;51.164;16.924;2022-08-18T20:23:30;42.80;39.50
21801;DHT22;11062;51.164;16.924;2022-08-18T20:25:56;42.90;39.40
21801;DHT22;11062;51.164;16.924;2022-08-18T22:58:19;43.30;38.30
21801;DHT22;11062;51.164;16.924;2022-08-18T23:00:46;43.30;38.40
21801;DHT22;11062;51.164;16.924;2022-08-18T23:03:12;43.20;38.40
21801;DHT22;11062;51.164;16.924;2022-08-18T23:05:38;43.10;38.50
21801;DHT22;11062;51.164;16.924;2022-08-18T23:08:04;43.20;38.50
21801;DHT22;11062;51.164;16.924;2022-08-18T23:10:33;43.10;38.40
21801;DHT22;11062;51.164;16.924;2022-08-18T23:12:59;42.90;38.80
21801;DHT22;11062;51.164;16.924;2022-08-18T23:15:26;42.60;39.20
21801;DHT22;11062;51.164;16.924;2022-08-18T23:18:09;42.50;39.30
21801;DHT22;11062;51.164;16.924;2022-08-18T23:20:35;42.40;39.30
21801;DHT22;11062;51.164;16.924;2022-08-18T23:23:02;42.30;39.50
21801;DHT22;11062;51.164;16.924;2022-08-18T23:25:28;42.30;39.80
21801;DHT22;11062;51.164;16.924;2022-08-18T23:27:53;42.10;39.80
21801;DHT22;11062;51.164;16.924;2022-08-18T23:30:20;42.00;39.90
21801;DHT22;11062;51.164;16.924;2022-08-18T23:32:50;41.90;40.70
21801;DHT22;11062;51.164;16.924;2022-08-18T23:35:21;41.80;40.30
21801;DHT22;11062;51.164;16.924;2022-08-18T23:37:48;41.80;40.20
21801;DHT22;11062;51.164;16.924;2022-08-18T23:40:14;41.80;40.20
21801;DHT22;11062;51.164;16.924;2022-08-18T23:42:43;41.90;40.40
21801;DHT22;11062;51.164;16.924;2022-08-18T23:45:09;42.00;40.40
21801;DHT22;11062;51.164;16.924;2022-08-18T23:47:36;42.10;40.20
21801;DHT22;11062;51.164;16.924;2022-08-18T23:50:04;42.10;40.10
21801;DHT22;11062;51.164;16.924;2022-08-18T23:52:31;42.30;40.00
21801;DHT22;11062;51.164;16.924;2022-08-18T23:55:02;42.20;39.90
21801;DHT22;11062;51.164;16.924;2022-08-18T23:57:28;42.20;39.80
21801;DHT22;11062;51.164;16.924;2022-08-18T23:59:54;42.20;40.10
